sensor_id;sensor_type;location;lat;lon;timestamp;P1;durP1;ratioP1;P2;durP2;ratioP2
14143;SDS011;7152;48.348;10.980;2023-08-12T00:01:24;4.20;;;3.53;;
14143;SDS011;7152;48.348;10.980;2023-08-12T00:03:51;4.00;;;3.33;;
14143;SDS011;7152;48.348;10.980;2023-08-12T00:06:16;4.03;;;3.27;;
14143;SDS011;7152;48.348;10.980;2023-08-12T00:08:42;3.50;;;3.17;;
14143;SDS011;7152;48.348;10.980;2023-08-12T00:11:08;3.63;;;3.33;;
14143;SDS011;7152;48.348;10.980;2023-08-12T00:13:34;3.80;;;3.40;;
14143;SDS011;7152;48.348;10.980;2023-08-12T00:16:00;5.10;;;3.43;;
14143;SDS011;7152;48.348;10.980;2023-08-12T00:18:26;3.60;;;3.10;;
14143;SDS011;7152;48.348;10.980;2023-08-12T00:20:53;3.37;;;3.07;;
14143;SDS011;7152;48.348;10.980;2023-08-12T00:23:20;3.57;;;3.23;;
14143;SDS011;7152;48.348;10.980;2023-08-12T00:25:46;4.57;;;3.93;;
14143;SDS011;7152;48.348;10.980;2023-08-12T00:28:12;3.77;;;3.37;;
14143;SDS011;7152;48.348;10.980;2023-08-12T00:30:38;4.30;;;3.50;;
14143;SDS011;7152;48.348;10.980;2023-08-12T00:33:03;3.53;;;3.23;;
14143;SDS011;7152;48.348;10.980;2023-08-12T00:35:29;3.53;;;3.23;;
14143;SDS011;7152;48.348;10.980;2023-08-12T00:37:55;3.87;;;3.50;;
14143;SDS011;7152;48.348;10.980;2023-08-12T00:40:21;3.67;;;3.37;;
14143;SDS011;7152;48.348;10.980;2023-08-12T00:42:47;3.67;;;3.37;;
14143;SDS011;7152;48.348;10.980;2023-08-12T00:45:13;4.20;;;3.80;;
14143;SDS011;7152;48.348;10.980;2023-08-12T00:47:39;4.27;;;3.97;;
14143;SDS011;7152;48.348;10.980;2023-08-12T00:50:08;4.40;;;3.70;;
14143;SDS011;7152;48.348;10.980;2023-08-12T00:52:37;4.47;;;4.07;;
14143;SDS011;7152;48.348;10.980;2023-08-12T00:55:04;5.13;;;3.77;;
14143;SDS011;7152;48.348;10.980;2023-08-12T00:57:30;4.20;;;3.50;;
14143;SDS011;7152;48.348;10.980;2023-08-12T00:59:56;4.37;;;3.97;;
14143;SDS011;7152;48.348;10.980;2023-08-12T01:02:22;4.10;;;3.70;;
14143;SDS011;7152;48.348;10.980;2023-08-12T01:04:48;5.20;;;3.87;;
14143;SDS011;7152;48.348;10.980;2023-08-12T01:07:14;4.33;;;3.93;;
14143;SDS011;7152;48.348;10.980;2023-08-12T01:09:39;4.43;;;4.03;;
14143;SDS011;7152;48.348;10.980;2023-08-12T01:17:31;4.37;;;3.97;;
14143;SDS011;7152;48.348;10.980;2023-08-12T01:19:59;5.30;;;4.10;;
14143;SDS011;7152;48.348;10.980;2023-08-12T01:22:27;4.67;;;3.70;;
14143;SDS011;7152;48.348;10.980;2023-08-12T01:24:58;4.70;;;4.00;;
14143;SDS011;7152;48.348;10.980;2023-08-12T01:27:24;4.53;;;3.90;;
14143;SDS011;7152;48.348;10.980;2023-08-12T01:29:51;4.20;;;3.80;;
14143;SDS011;7152;48.348;10.980;2023-08-12T01:35:14;4.53;;;4.13;;
14143;SDS011;7152;48.348;10.980;2023-08-12T01:37:45;4.40;;;4.00;;
14143;SDS011;7152;48.348;10.980;2023-08-12T01:40:13;5.67;;;4.90;;
14143;SDS011;7152;48.348;10.980;2023-08-12T01:42:40;4.90;;;4.50;;
14143;SDS011;7152;48.348;10.980;2023-08-12T01:45:07;5.53;;;4.50;;
14143;SDS011;7152;48.348;10.980;2023-08-12T01:47:33;4.63;;;4.00;;
14143;SDS011;7152;48.348;10.980;2023-08-12T01:49:59;5.30;;;4.80;;
14143;SDS011;7152;48.348;10.980;2023-08-12T01:52:25;5.20;;;4.30;;
14143;SDS011;7152;48.348;10.980;2023-08-12T01:54:51;4.40;;;3.97;;
14143;SDS011;7152;48.348;10.980;2023-08-12T01:57:17;4.50;;;4.10;;
14143;SDS011;7152;48.348;10.980;2023-08-12T01:59:43;4.37;;;3.80;;
14143;SDS011;7152;48.348;10.980;2023-08-12T02:02:10;4.87;;;4.37;;
14143;SDS011;7152;48.348;10.980;2023-08-12T02:04:36;5.30;;;4.23;;
14143;SDS011;7152;48.348;10.980;2023-08-12T02:07:03;4.97;;;4.47;;
14143;SDS011;7152;48.348;10.980;2023-08-12T02:09:29;4.90;;;4.43;;
14143;SDS011;7152;48.348;10.980;2023-08-12T02:11:56;4.70;;;4.20;;
14143;SDS011;7152;48.348;10.980;2023-08-12T02:14:22;4.90;;;4.40;;
14143;SDS011;7152;48.348;10.980;2023-08-12T02:16:48;5.20;;;4.80;;
14143;SDS011;7152;48.348;10.980;2023-08-12T02:19:13;5.17;;;4.37;;
14143;SDS011;7152;48.348;10.980;2023-08-12T02:21:40;5.07;;;4.57;;
14143;SDS011;7152;48.348;10.980;2023-08-12T02:24:07;5.17;;;4.77;;
14143;SDS011;7152;48.348;10.980;2023-08-12T02:26:37;4.90;;;4.50;;
14143;SDS011;7152;48.348;10.980;2023-08-12T02:29:03;5.30;;;4.80;;
14143;SDS011;7152;48.348;10.980;2023-08-12T02:31:29;5.07;;;4.67;;
14143;SDS011;7152;48.348;10.980;2023-08-12T02:33:55;6.10;;;4.90;;
14143;SDS011;7152;48.348;10.980;2023-08-12T02:36:21;5.13;;;4.73;;
14143;SDS011;7152;48.348;10.980;2023-08-12T02:38:47;4.97;;;4.57;;
14143;SDS011;7152;48.348;10.980;2023-08-12T02:41:12;5.30;;;4.80;;
14143;SDS011;7152;48.348;10.980;2023-08-12T02:43:38;5.57;;;5.07;;
14143;SDS011;7152;48.348;10.980;2023-08-12T02:46:04;5.70;;;5.00;;
14143;SDS011;7152;48.348;10.980;2023-08-12T02:48:30;5.40;;;4.90;;
14143;SDS011;7152;48.348;10.980;2023-08-12T02:50:56;5.47;;;5.07;;
14143;SDS011;7152;48.348;10.980;2023-08-12T02:53:22;5.20;;;4.80;;
14143;SDS011;7152;48.348;10.980;2023-08-12T02:55:48;5.50;;;5.00;;
14143;SDS011;7152;48.348;10.980;2023-08-12T02:58:14;5.77;;;5.27;;
14143;SDS011;7152;48.348;10.980;2023-08-12T03:00:43;5.83;;;5.33;;
14143;SDS011;7152;48.348;10.980;2023-08-12T03:03:09;6.13;;;5.53;;
14143;SDS011;7152;48.348;10.980;2023-08-12T03:05:35;5.70;;;5.00;;
14143;SDS011;7152;48.348;10.980;2023-08-12T03:08:02;5.57;;;5.17;;
14143;SDS011;7152;48.348;10.980;2023-08-12T03:10:29;6.57;;;5.07;;
14143;SDS011;7152;48.348;10.980;2023-08-12T03:12:56;6.30;;;5.30;;
14143;SDS011;7152;48.348;10.980;2023-08-12T03:15:22;6.00;;;5.40;;
14143;SDS011;7152;48.348;10.980;2023-08-12T03:17:48;5.77;;;5.17;;
14143;SDS011;7152;48.348;10.980;2023-08-12T03:20:15;6.50;;;5.20;;
14143;SDS011;7152;48.348;10.980;2023-08-12T03:22:41;6.20;;;5.60;;
14143;SDS011;7152;48.348;10.980;2023-08-12T03:25:08;5.63;;;5.23;;
14143;SDS011;7152;48.348;10.980;2023-08-12T03:27:34;5.13;;;4.63;;
14143;SDS011;7152;48.348;10.980;2023-08-12T03:30:00;5.70;;;5.20;;
14143;SDS011;7152;48.348;10.980;2023-08-12T03:32:26;5.43;;;4.93;;
14143;SDS011;7152;48.348;10.980;2023-08-12T03:34:53;6.60;;;5.13;;
14143;SDS011;7152;48.348;10.980;2023-08-12T03:37:19;6.70;;;5.40;;
14143;SDS011;7152;48.348;10.980;2023-08-12T03:39:47;5.57;;;5.13;;
14143;SDS011;7152;48.348;10.980;2023-08-12T03:42:14;5.27;;;4.87;;
14143;SDS011;7152;48.348;10.980;2023-08-12T03:44:42;6.37;;;5.77;;
14143;SDS011;7152;48.348;10.980;2023-08-12T03:47:09;5.67;;;5.17;;
14143;SDS011;7152;48.348;10.980;2023-08-12T03:49:36;6.13;;;5.10;;
14143;SDS011;7152;48.348;10.980;2023-08-12T03:52:03;5.57;;;5.07;;
14143;SDS011;7152;48.348;10.980;2023-08-12T03:54:30;4.80;;;4.40;;
14143;SDS011;7152;48.348;10.980;2023-08-12T03:56:55;4.87;;;4.27;;
14143;SDS011;7152;48.348;10.980;2023-08-12T03:59:22;4.00;;;3.70;;
14143;SDS011;7152;48.348;10.980;2023-08-12T04:01:48;5.20;;;4.47;;
14143;SDS011;7152;48.348;10.980;2023-08-12T04:04:15;5.40;;;4.90;;
14143;SDS011;7152;48.348;10.980;2023-08-12T04:06:41;4.93;;;4.53;;
14143;SDS011;7152;48.348;10.980;2023-08-12T04:09:07;5.90;;;5.33;;
14143;SDS011;7152;48.348;10.980;2023-08-12T04:11:33;5.83;;;5.33;;
14143;SDS011;7152;48.348;10.980;2023-08-12T04:13:59;6.83;;;5.47;;
14143;SDS011;7152;48.348;10.980;2023-08-12T04:16:25;6.20;;;5.60;;
14143;SDS011;7152;48.348;10.980;2023-08-12T04:18:51;5.97;;;5.47;;
14143;SDS011;7152;48.348;10.980;2023-08-12T04:21:17;6.57;;;6.00;;
14143;SDS011;7152;48.348;10.980;2023-08-12T04:23:42;6.17;;;5.67;;
14143;SDS011;7152;48.348;10.980;2023-08-12T04:26:09;5.77;;;5.17;;
14143;SDS011;7152;48.348;10.980;2023-08-12T04:28:34;5.80;;;5.30;;
14143;SDS011;7152;48.348;10.980;2023-08-12T04:31:00;6.57;;;5.80;;
14143;SDS011;7152;48.348;10.980;2023-08-12T04:33:31;6.13;;;5.53;;
14143;SDS011;7152;48.348;10.980;2023-08-12T04:35:57;6.13;;;5.63;;
14143;SDS011;7152;48.348;10.980;2023-08-12T04:38:23;6.57;;;5.87;;
14143;SDS011;7152;48.348;10.980;2023-08-12T04:40:55;7.13;;;6.17;;
14143;SDS011;7152;48.348;10.980;2023-08-12T04:43:21;6.50;;;6.00;;
14143;SDS011;7152;48.348;10.980;2023-08-12T04:45:47;7.07;;;6.47;;
14143;SDS011;7152;48.348;10.980;2023-08-12T04:48:15;7.43;;;6.57;;
14143;SDS011;7152;48.348;10.980;2023-08-12T04:50:44;6.73;;;6.17;;
14143;SDS011;7152;48.348;10.980;2023-08-12T04:53:10;7.93;;;7.10;;
14143;SDS011;7152;48.348;10.980;2023-08-12T04:55:36;7.43;;;6.83;;
14143;SDS011;7152;48.348;10.980;2023-08-12T04:58:04;7.10;;;6.50;;
14143;SDS011;7152;48.348;10.980;2023-08-12T05:00:30;9.00;;;8.10;;
14143;SDS011;7152;48.348;10.980;2023-08-12T05:02:56;8.23;;;7.60;;
14143;SDS011;7152;48.348;10.980;2023-08-12T05:05:23;11.00;;;10.20;;
14143;SDS011;7152;48.348;10.980;2023-08-12T05:07:50;10.33;;;9.40;;
14143;SDS011;7152;48.348;10.980;2023-08-12T05:10:18;11.33;;;10.43;;
14143;SDS011;7152;48.348;10.980;2023-08-12T05:12:44;7.60;;;6.93;;
14143;SDS011;7152;48.348;10.980;2023-08-12T05:15:11;8.17;;;7.43;;
14143;SDS011;7152;48.348;10.980;2023-08-12T05:17:37;8.13;;;7.40;;
14143;SDS011;7152;48.348;10.980;2023-08-12T05:20:04;7.67;;;6.97;;
14143;SDS011;7152;48.348;10.980;2023-08-12T05:22:31;7.70;;;7.00;;
14143;SDS011;7152;48.348;10.980;2023-08-12T05:24:57;6.97;;;6.27;;
14143;SDS011;7152;48.348;10.980;2023-08-12T05:27:22;6.87;;;6.17;;
14143;SDS011;7152;48.348;10.980;2023-08-12T05:29:48;6.70;;;6.10;;
14143;SDS011;7152;48.348;10.980;2023-08-12T05:32:17;6.87;;;5.87;;
14143;SDS011;7152;48.348;10.980;2023-08-12T05:34:43;6.30;;;5.80;;
14143;SDS011;7152;48.348;10.980;2023-08-12T05:37:09;6.60;;;6.10;;
14143;SDS011;7152;48.348;10.980;2023-08-12T05:39:34;6.70;;;5.97;;
14143;SDS011;7152;48.348;10.980;2023-08-12T05:42:00;6.43;;;5.83;;
14143;SDS011;7152;48.348;10.980;2023-08-12T05:44:26;5.90;;;5.40;;
14143;SDS011;7152;48.348;10.980;2023-08-12T05:46:52;6.30;;;5.77;;
14143;SDS011;7152;48.348;10.980;2023-08-12T05:49:18;6.07;;;5.57;;
14143;SDS011;7152;48.348;10.980;2023-08-12T05:51:44;6.10;;;5.60;;
14143;SDS011;7152;48.348;10.980;2023-08-12T05:54:09;6.20;;;5.70;;
14143;SDS011;7152;48.348;10.980;2023-08-12T05:56:35;6.27;;;5.67;;
14143;SDS011;7152;48.348;10.980;2023-08-12T05:59:01;5.97;;;5.37;;
14143;SDS011;7152;48.348;10.980;2023-08-12T06:01:27;5.67;;;5.17;;
14143;SDS011;7152;48.348;10.980;2023-08-12T06:03:53;5.50;;;5.00;;
14143;SDS011;7152;48.348;10.980;2023-08-12T06:06:18;6.83;;;5.80;;
14143;SDS011;7152;48.348;10.980;2023-08-12T06:08:44;6.97;;;6.33;;
14143;SDS011;7152;48.348;10.980;2023-08-12T06:11:10;6.90;;;6.30;;
14143;SDS011;7152;48.348;10.980;2023-08-12T06:13:36;6.80;;;6.20;;
14143;SDS011;7152;48.348;10.980;2023-08-12T06:16:02;7.33;;;6.73;;
14143;SDS011;7152;48.348;10.980;2023-08-12T06:18:27;7.33;;;6.50;;
14143;SDS011;7152;48.348;10.980;2023-08-12T06:20:53;7.40;;;6.80;;
14143;SDS011;7152;48.348;10.980;2023-08-12T06:23:19;6.27;;;5.77;;
14143;SDS011;7152;48.348;10.980;2023-08-12T06:25:45;6.87;;;6.33;;
14143;SDS011;7152;48.348;10.980;2023-08-12T06:28:11;6.90;;;6.30;;
14143;SDS011;7152;48.348;10.980;2023-08-12T06:30:37;7.27;;;6.67;;
14143;SDS011;7152;48.348;10.980;2023-08-12T06:33:02;7.00;;;6.40;;
14143;SDS011;7152;48.348;10.980;2023-08-12T06:35:28;6.97;;;6.33;;
14143;SDS011;7152;48.348;10.980;2023-08-12T06:37:54;6.20;;;5.53;;
14143;SDS011;7152;48.348;10.980;2023-08-12T06:40:20;7.00;;;6.23;;
14143;SDS011;7152;48.348;10.980;2023-08-12T06:42:46;6.37;;;5.77;;
14143;SDS011;7152;48.348;10.980;2023-08-12T06:45:12;6.50;;;5.90;;
14143;SDS011;7152;48.348;10.980;2023-08-12T06:47:38;6.33;;;5.80;;
14143;SDS011;7152;48.348;10.980;2023-08-12T06:50:04;6.97;;;6.23;;
14143;SDS011;7152;48.348;10.980;2023-08-12T06:52:30;6.37;;;5.73;;
14143;SDS011;7152;48.348;10.980;2023-08-12T06:54:56;6.20;;;5.70;;
14143;SDS011;7152;48.348;10.980;2023-08-12T06:57:22;5.90;;;5.30;;
14143;SDS011;7152;48.348;10.980;2023-08-12T06:59:48;5.67;;;5.10;;
14143;SDS011;7152;48.348;10.980;2023-08-12T07:02:13;5.37;;;4.97;;
14143;SDS011;7152;48.348;10.980;2023-08-12T07:04:39;5.20;;;4.70;;
14143;SDS011;7152;48.348;10.980;2023-08-12T07:07:05;4.83;;;4.47;;
14143;SDS011;7152;48.348;10.980;2023-08-12T07:09:31;4.70;;;4.30;;
14143;SDS011;7152;48.348;10.980;2023-08-12T07:11:56;5.27;;;4.37;;
14143;SDS011;7152;48.348;10.980;2023-08-12T07:14:22;5.27;;;4.77;;
14143;SDS011;7152;48.348;10.980;2023-08-12T07:16:48;6.37;;;4.73;;
14143;SDS011;7152;48.348;10.980;2023-08-12T07:19:14;4.57;;;4.07;;
14143;SDS011;7152;48.348;10.980;2023-08-12T07:21:40;4.40;;;4.00;;
14143;SDS011;7152;48.348;10.980;2023-08-12T07:24:06;5.10;;;4.43;;
14143;SDS011;7152;48.348;10.980;2023-08-12T07:26:32;4.75;;;4.35;;
14143;SDS011;7152;48.348;10.980;2023-08-12T07:28:58;4.40;;;3.83;;
14143;SDS011;7152;48.348;10.980;2023-08-12T07:31:23;4.30;;;4.00;;
14143;SDS011;7152;48.348;10.980;2023-08-12T07:33:49;4.50;;;4.05;;
14143;SDS011;7152;48.348;10.980;2023-08-12T07:36:15;4.40;;;4.07;;
14143;SDS011;7152;48.348;10.980;2023-08-12T07:38:41;3.92;;;3.63;;
14143;SDS011;7152;48.348;10.980;2023-08-12T07:41:07;4.57;;;4.10;;
14143;SDS011;7152;48.348;10.980;2023-08-12T07:43:33;4.20;;;3.67;;
14143;SDS011;7152;48.348;10.980;2023-08-12T07:45:58;4.10;;;3.77;;
14143;SDS011;7152;48.348;10.980;2023-08-12T07:48:24;4.43;;;3.97;;
14143;SDS011;7152;48.348;10.980;2023-08-12T07:50:57;4.13;;;3.83;;
14143;SDS011;7152;48.348;10.980;2023-08-12T07:53:23;3.53;;;3.22;;
14143;SDS011;7152;48.348;10.980;2023-08-12T07:55:49;3.95;;;3.58;;
14143;SDS011;7152;48.348;10.980;2023-08-12T07:58:15;3.75;;;3.45;;
14143;SDS011;7152;48.348;10.980;2023-08-12T08:00:41;5.17;;;3.60;;
14143;SDS011;7152;48.348;10.980;2023-08-12T08:03:07;4.32;;;3.95;;
14143;SDS011;7152;48.348;10.980;2023-08-12T08:05:32;3.13;;;2.83;;
14143;SDS011;7152;48.348;10.980;2023-08-12T08:07:58;4.03;;;3.58;;
14143;SDS011;7152;48.348;10.980;2023-08-12T08:10:24;3.88;;;3.58;;
14143;SDS011;7152;48.348;10.980;2023-08-12T08:12:50;3.55;;;3.25;;
14143;SDS011;7152;48.348;10.980;2023-08-12T08:15:16;3.83;;;3.50;;
14143;SDS011;7152;48.348;10.980;2023-08-12T08:17:42;3.55;;;3.25;;
14143;SDS011;7152;48.348;10.980;2023-08-12T08:20:08;3.80;;;3.50;;
14143;SDS011;7152;48.348;10.980;2023-08-12T08:22:35;4.57;;;3.90;;
14143;SDS011;7152;48.348;10.980;2023-08-12T08:25:01;4.05;;;3.72;;
14143;SDS011;7152;48.348;10.980;2023-08-12T08:27:28;3.92;;;3.63;;
14143;SDS011;7152;48.348;10.980;2023-08-12T08:29:54;3.88;;;3.58;;
14143;SDS011;7152;48.348;10.980;2023-08-12T08:32:19;4.10;;;3.80;;
14143;SDS011;7152;48.348;10.980;2023-08-12T08:34:45;4.00;;;3.70;;
14143;SDS011;7152;48.348;10.980;2023-08-12T08:37:11;5.35;;;3.70;;
14143;SDS011;7152;48.348;10.980;2023-08-12T08:39:37;4.70;;;3.65;;
14143;SDS011;7152;48.348;10.980;2023-08-12T08:42:03;4.15;;;3.55;;
14143;SDS011;7152;48.348;10.980;2023-08-12T08:44:31;4.30;;;3.90;;
14143;SDS011;7152;48.348;10.980;2023-08-12T08:46:59;4.07;;;3.70;;
14143;SDS011;7152;48.348;10.980;2023-08-12T08:49:26;3.75;;;3.45;;
14143;SDS011;7152;48.348;10.980;2023-08-12T08:51:54;3.47;;;3.17;;
14143;SDS011;7152;48.348;10.980;2023-08-12T08:54:21;3.83;;;3.28;;
14143;SDS011;7152;48.348;10.980;2023-08-12T08:56:48;3.63;;;3.33;;
14143;SDS011;7152;48.348;10.980;2023-08-12T08:59:15;6.07;;;4.05;;
14143;SDS011;7152;48.348;10.980;2023-08-12T09:01:40;4.82;;;3.80;;
14143;SDS011;7152;48.348;10.980;2023-08-12T09:04:09;4.22;;;3.92;;
14143;SDS011;7152;48.348;10.980;2023-08-12T09:06:35;4.55;;;3.30;;
14143;SDS011;7152;48.348;10.980;2023-08-12T09:09:03;3.95;;;3.63;;
14143;SDS011;7152;48.348;10.980;2023-08-12T09:11:35;3.70;;;3.40;;
14143;SDS011;7152;48.348;10.980;2023-08-12T09:14:04;4.10;;;3.70;;
14143;SDS011;7152;48.348;10.980;2023-08-12T09:16:30;3.40;;;3.20;;
14143;SDS011;7152;48.348;10.980;2023-08-12T09:18:56;4.70;;;3.85;;
14143;SDS011;7152;48.348;10.980;2023-08-12T09:21:23;3.60;;;3.30;;
14143;SDS011;7152;48.348;10.980;2023-08-12T09:23:49;3.80;;;3.50;;
14143;SDS011;7152;48.348;10.980;2023-08-12T09:26:16;3.50;;;3.20;;
14143;SDS011;7152;48.348;10.980;2023-08-12T09:28:42;3.50;;;3.20;;
14143;SDS011;7152;48.348;10.980;2023-08-12T09:31:21;3.58;;;3.28;;
14143;SDS011;7152;48.348;10.980;2023-08-12T09:33:48;3.70;;;3.40;;
14143;SDS011;7152;48.348;10.980;2023-08-12T09:36:15;3.58;;;3.28;;
14143;SDS011;7152;48.348;10.980;2023-08-12T09:38:42;3.88;;;3.30;;
14143;SDS011;7152;48.348;10.980;2023-08-12T09:41:08;3.85;;;3.50;;
14143;SDS011;7152;48.348;10.980;2023-08-12T09:43:34;4.70;;;3.58;;
14143;SDS011;7152;48.348;10.980;2023-08-12T09:46:00;3.88;;;3.40;;
14143;SDS011;7152;48.348;10.980;2023-08-12T09:48:27;4.03;;;3.60;;
14143;SDS011;7152;48.348;10.980;2023-08-12T09:50:53;3.85;;;3.40;;
14143;SDS011;7152;48.348;10.980;2023-08-12T09:53:21;3.63;;;3.20;;
14143;SDS011;7152;48.348;10.980;2023-08-12T09:55:48;4.15;;;3.53;;
14143;SDS011;7152;48.348;10.980;2023-08-12T09:58:17;3.72;;;3.40;;
14143;SDS011;7152;48.348;10.980;2023-08-12T10:00:46;3.53;;;3.05;;
14143;SDS011;7152;48.348;10.980;2023-08-12T10:03:14;3.67;;;3.35;;
14143;SDS011;7152;48.348;10.980;2023-08-12T10:05:43;4.38;;;3.20;;
14143;SDS011;7152;48.348;10.980;2023-08-12T10:08:09;4.40;;;3.20;;
14143;SDS011;7152;48.348;10.980;2023-08-12T10:10:36;5.10;;;3.38;;
14143;SDS011;7152;48.348;10.980;2023-08-12T10:13:02;3.17;;;2.97;;
14143;SDS011;7152;48.348;10.980;2023-08-12T10:15:32;2.95;;;2.75;;
14143;SDS011;7152;48.348;10.980;2023-08-12T10:17:58;2.90;;;2.70;;
14143;SDS011;7152;48.348;10.980;2023-08-12T10:20:25;3.00;;;2.70;;
14143;SDS011;7152;48.348;10.980;2023-08-12T10:22:52;3.00;;;2.78;;
14143;SDS011;7152;48.348;10.980;2023-08-12T10:25:19;2.85;;;2.65;;
14143;SDS011;7152;48.348;10.980;2023-08-12T10:27:49;3.45;;;2.80;;
14143;SDS011;7152;48.348;10.980;2023-08-12T10:30:15;2.90;;;2.70;;
14143;SDS011;7152;48.348;10.980;2023-08-12T10:32:41;3.58;;;2.63;;
14143;SDS011;7152;48.348;10.980;2023-08-12T10:35:08;2.92;;;2.42;;
14143;SDS011;7152;48.348;10.980;2023-08-12T10:37:34;2.60;;;2.40;;
14143;SDS011;7152;48.348;10.980;2023-08-12T10:40:04;2.33;;;2.20;;
14143;SDS011;7152;48.348;10.980;2023-08-12T10:42:43;2.78;;;2.58;;
14143;SDS011;7152;48.348;10.980;2023-08-12T10:45:10;2.20;;;2.00;;
14143;SDS011;7152;48.348;10.980;2023-08-12T10:50:16;2.50;;;2.20;;
14143;SDS011;7152;48.348;10.980;2023-08-12T10:52:43;2.92;;;2.20;;
14143;SDS011;7152;48.348;10.980;2023-08-12T10:55:17;4.38;;;2.20;;
14143;SDS011;7152;48.348;10.980;2023-08-12T10:57:51;3.03;;;2.15;;
14143;SDS011;7152;48.348;10.980;2023-08-12T11:00:19;2.65;;;2.20;;
14143;SDS011;7152;48.348;10.980;2023-08-12T11:02:55;2.38;;;2.20;;
14143;SDS011;7152;48.348;10.980;2023-08-12T11:05:22;2.42;;;2.22;;
14143;SDS011;7152;48.348;10.980;2023-08-12T11:07:59;2.33;;;2.13;;
14143;SDS011;7152;48.348;10.980;2023-08-12T11:10:26;2.72;;;2.10;;
14143;SDS011;7152;48.348;10.980;2023-08-12T11:12:56;2.55;;;2.35;;
14143;SDS011;7152;48.348;10.980;2023-08-12T11:15:29;2.58;;;2.13;;
14143;SDS011;7152;48.348;10.980;2023-08-12T11:18:12;2.50;;;2.30;;
14143;SDS011;7152;48.348;10.980;2023-08-12T11:20:42;3.30;;;2.10;;
14143;SDS011;7152;48.348;10.980;2023-08-12T11:23:09;2.13;;;1.98;;
14143;SDS011;7152;48.348;10.980;2023-08-12T11:25:36;2.45;;;2.03;;
14143;SDS011;7152;48.348;10.980;2023-08-12T11:28:04;2.47;;;2.28;;
14143;SDS011;7152;48.348;10.980;2023-08-12T11:30:30;2.28;;;2.08;;
14143;SDS011;7152;48.348;10.980;2023-08-12T11:32:56;3.38;;;2.20;;
14143;SDS011;7152;48.348;10.980;2023-08-12T11:35:24;2.80;;;2.60;;
14143;SDS011;7152;48.348;10.980;2023-08-12T11:37:51;3.17;;;2.22;;
14143;SDS011;7152;48.348;10.980;2023-08-12T11:40:19;2.42;;;2.22;;
14143;SDS011;7152;48.348;10.980;2023-08-12T11:42:46;2.78;;;2.30;;
14143;SDS011;7152;48.348;10.980;2023-08-12T11:45:13;2.33;;;2.13;;
14143;SDS011;7152;48.348;10.980;2023-08-12T11:47:41;2.67;;;2.22;;
14143;SDS011;7152;48.348;10.980;2023-08-12T11:50:08;2.20;;;2.10;;
14143;SDS011;7152;48.348;10.980;2023-08-12T11:52:35;2.60;;;2.40;;
14143;SDS011;7152;48.348;10.980;2023-08-12T11:55:02;2.45;;;2.25;;
14143;SDS011;7152;48.348;10.980;2023-08-12T11:57:29;2.90;;;2.40;;
14143;SDS011;7152;48.348;10.980;2023-08-12T11:59:58;2.95;;;2.63;;
14143;SDS011;7152;48.348;10.980;2023-08-12T12:02:25;5.05;;;2.40;;
14143;SDS011;7152;48.348;10.980;2023-08-12T12:04:51;3.13;;;2.83;;
14143;SDS011;7152;48.348;10.980;2023-08-12T12:07:22;2.90;;;2.60;;
14143;SDS011;7152;48.348;10.980;2023-08-12T12:09:53;2.78;;;2.58;;
14143;SDS011;7152;48.348;10.980;2023-08-12T12:12:22;2.83;;;2.63;;
14143;SDS011;7152;48.348;10.980;2023-08-12T12:14:53;3.22;;;2.42;;
14143;SDS011;7152;48.348;10.980;2023-08-12T12:17:22;3.38;;;2.90;;
14143;SDS011;7152;48.348;10.980;2023-08-12T12:19:52;3.30;;;2.80;;
14143;SDS011;7152;48.348;10.980;2023-08-12T12:22:20;3.40;;;2.72;;
14143;SDS011;7152;48.348;10.980;2023-08-12T12:24:51;2.85;;;2.65;;
14143;SDS011;7152;48.348;10.980;2023-08-12T12:27:16;3.10;;;2.70;;
14143;SDS011;7152;48.348;10.980;2023-08-12T12:29:42;3.88;;;2.63;;
14143;SDS011;7152;48.348;10.980;2023-08-12T12:32:10;3.65;;;2.83;;
14143;SDS011;7152;48.348;10.980;2023-08-12T12:34:36;3.00;;;2.80;;
14143;SDS011;7152;48.348;10.980;2023-08-12T12:37:01;3.15;;;2.30;;
14143;SDS011;7152;48.348;10.980;2023-08-12T12:39:27;2.80;;;2.60;;
14143;SDS011;7152;48.348;10.980;2023-08-12T12:41:53;3.05;;;2.78;;
14143;SDS011;7152;48.348;10.980;2023-08-12T12:44:19;2.50;;;2.30;;
14143;SDS011;7152;48.348;10.980;2023-08-12T12:46:45;3.20;;;2.33;;
14143;SDS011;7152;48.348;10.980;2023-08-12T12:49:10;3.03;;;2.47;;
14143;SDS011;7152;48.348;10.980;2023-08-12T12:51:36;2.70;;;2.30;;
14143;SDS011;7152;48.348;10.980;2023-08-12T12:54:02;2.72;;;2.53;;
14143;SDS011;7152;48.348;10.980;2023-08-12T12:56:28;3.65;;;2.40;;
14143;SDS011;7152;48.348;10.980;2023-08-12T12:58:54;3.50;;;2.17;;
14143;SDS011;7152;48.348;10.980;2023-08-12T13:01:20;2.83;;;2.63;;
14143;SDS011;7152;48.348;10.980;2023-08-12T13:03:46;2.25;;;2.05;;
14143;SDS011;7152;48.348;10.980;2023-08-12T13:06:11;2.80;;;2.30;;
14143;SDS011;7152;48.348;10.980;2023-08-12T13:08:37;2.72;;;2.53;;
14143;SDS011;7152;48.348;10.980;2023-08-12T13:11:03;3.25;;;1.88;;
14143;SDS011;7152;48.348;10.980;2023-08-12T13:13:29;2.55;;;2.10;;
14143;SDS011;7152;48.348;10.980;2023-08-12T13:15:55;2.38;;;2.17;;
14143;SDS011;7152;48.348;10.980;2023-08-12T13:18:21;2.13;;;2.00;;
14143;SDS011;7152;48.348;10.980;2023-08-12T13:20:48;2.00;;;1.80;;
14143;SDS011;7152;48.348;10.980;2023-08-12T13:23:14;2.03;;;1.92;;
14143;SDS011;7152;48.348;10.980;2023-08-12T13:25:40;1.92;;;1.60;;
14143;SDS011;7152;48.348;10.980;2023-08-12T13:28:06;1.77;;;1.67;;
14143;SDS011;7152;48.348;10.980;2023-08-12T13:30:32;2.85;;;1.90;;
14143;SDS011;7152;48.348;10.980;2023-08-12T13:32:57;2.47;;;1.60;;
14143;SDS011;7152;48.348;10.980;2023-08-12T13:35:23;2.90;;;2.08;;
14143;SDS011;7152;48.348;10.980;2023-08-12T13:37:49;1.80;;;1.70;;
14143;SDS011;7152;48.348;10.980;2023-08-12T13:40:16;3.10;;;2.08;;
14143;SDS011;7152;48.348;10.980;2023-08-12T13:42:45;2.83;;;1.95;;
14143;SDS011;7152;48.348;10.980;2023-08-12T13:45:11;2.65;;;1.77;;
14143;SDS011;7152;48.348;10.980;2023-08-12T13:47:38;2.83;;;1.85;;
14143;SDS011;7152;48.348;10.980;2023-08-12T13:50:04;2.13;;;1.92;;
14143;SDS011;7152;48.348;10.980;2023-08-12T13:52:30;2.50;;;2.30;;
14143;SDS011;7152;48.348;10.980;2023-08-12T13:54:56;3.03;;;1.90;;
14143;SDS011;7152;48.348;10.980;2023-08-12T13:57:22;2.53;;;2.05;;
14143;SDS011;7152;48.348;10.980;2023-08-12T13:59:48;4.25;;;2.38;;
14143;SDS011;7152;48.348;10.980;2023-08-12T14:02:14;3.45;;;2.30;;
14143;SDS011;7152;48.348;10.980;2023-08-12T14:04:40;2.78;;;2.58;;
14143;SDS011;7152;48.348;10.980;2023-08-12T14:07:06;3.20;;;2.40;;
14143;SDS011;7152;48.348;10.980;2023-08-12T14:09:33;4.45;;;2.72;;
14143;SDS011;7152;48.348;10.980;2023-08-12T14:11:59;2.53;;;2.33;;
14143;SDS011;7152;48.348;10.980;2023-08-12T14:14:25;2.58;;;2.38;;
14143;SDS011;7152;48.348;10.980;2023-08-12T14:16:54;2.53;;;2.33;;
14143;SDS011;7152;48.348;10.980;2023-08-12T14:19:20;4.38;;;2.88;;
14143;SDS011;7152;48.348;10.980;2023-08-12T14:21:46;2.60;;;2.40;;
14143;SDS011;7152;48.348;10.980;2023-08-12T14:24:12;3.70;;;2.72;;
14143;SDS011;7152;48.348;10.980;2023-08-12T14:26:38;2.88;;;2.65;;
14143;SDS011;7152;48.348;10.980;2023-08-12T14:29:05;2.63;;;2.42;;
14143;SDS011;7152;48.348;10.980;2023-08-12T14:31:31;3.28;;;2.75;;
14143;SDS011;7152;48.348;10.980;2023-08-12T14:33:57;4.07;;;2.60;;
14143;SDS011;7152;48.348;10.980;2023-08-12T14:36:23;3.75;;;2.78;;
14143;SDS011;7152;48.348;10.980;2023-08-12T14:38:52;3.00;;;2.80;;
14143;SDS011;7152;48.348;10.980;2023-08-12T14:41:18;2.90;;;2.70;;
14143;SDS011;7152;48.348;10.980;2023-08-12T14:43:44;3.70;;;2.90;;
14143;SDS011;7152;48.348;10.980;2023-08-12T14:46:09;4.30;;;2.92;;
14143;SDS011;7152;48.348;10.980;2023-08-12T14:48:35;3.33;;;3.05;;
14143;SDS011;7152;48.348;10.980;2023-08-12T14:51:01;5.55;;;2.90;;
14143;SDS011;7152;48.348;10.980;2023-08-12T14:53:27;3.95;;;3.00;;
14143;SDS011;7152;48.348;10.980;2023-08-12T14:55:53;6.22;;;3.13;;